Hauptseite
METAR-TAF:

METAR-TAF

Flughäfen :

Laupheim, Deutschland

Flugplatz Laupheim

Breite: 48-13N, Länge: 009-55E, Höhe: 538 m

Beobachtung

Neuester Wetterbericht von vor 50 Minuten, um 23:20 UTC
Wind 3 kt aus Südost
Temperatur 21°C
Luftfeuchtigkeit 69%
Luftdruck 1004 hPa
Sichtweite 10 km oder mehr
Leicht bewölkt in der Höhe von 5000 ft
Durchbrochene Bewölkung in der Höhe von 10000 ft

METAR: ETHL 272320Z 13003KT 9999 FEW050 BKN100 21/15 Q1004 BLU

Zeit: 02:10 (00:10 UTC)

Prognose

Neuester Wetterbericht von vor 6 Stunden und 25 Minuten, um 17:45 UTC
Gültige Prognose vom 27 um 17 UTC bis 28 um 02 UTC
Wind 5 kt aus West/Südwest
Sichtweite: 1820 m
Leicht bewölkt in der Höhe von 5000 ft
Aufgelockert bewölkt in der Höhe von 12000 ft

TAF: ETHL 271745Z 2717/2802 24005KT 9999 NSW FEW050 SCT120 CANCEL 1820

Wetterbeobachtungen und Prognosen von mehr als 4000 Flughäfen (METAR und TAF Bericht).

Die verfügbaren Stationen werden durch gelbe und rote Markierungen auf der Karte dargestellt.

Führen Sie die Maus auf sie, um den Namen der Station zu sehen.

Darauf klicken, um die Beobachtung von Wetterbeobachtungen und Prognosen zu sehen.

Um die Karte zu ändern : klicken Sie auf den grünen Tasten mit einem schwarzen Kreuz Zum Vergrößern, auf den grünen Button mit einem Gedankenstrich zu verkleinern, oder auf die grünen Pfeile für benachbarte Karten.


METAR-TAF: